Time;durP1;ratioP1;P1;durP2;ratioP2;P2;SDS_P1;SDS_P2;PMS_P1;PMS_P2;Temp;Humidity;BMP_temperature;BMP_pressure;BME280_temperature;BME280_humidity;BME280_pressure;Samples;Min_cycle;Max_cycle;Signal;HPM_P1;HPM_P2
2022/07/23 00:01:31;;;;;;;7.38;2.60;;;;;;;;;;5057993;28;20031;-66
2022/07/23 00:03:57;;;;;;;7.78;3.17;;;;;;;;;;5052647;28;20377;-66
2022/07/23 00:06:24;;;;;;;7.38;2.90;;;;;;;;;;5058551;28;20674;-67
2022/07/23 00:08:50;;;;;;;6.95;2.90;;;;;;;;;;5043009;28;20493;-66
2022/07/23 00:11:17;;;;;;;8.85;3.10;;;;;;;;;;5060461;28;20033;-66
2022/07/23 00:13:43;;;;;;;8.45;2.60;;;;;;;;;;5056973;28;20452;-66
2022/07/23 00:16:09;;;;;;;7.13;2.90;;;;;;;;;;5061289;28;20032;-68
2022/07/23 00:18:35;;;;;;;10.48;3.10;;;;;;;;;;5058181;28;20434;-68
2022/07/23 00:21:02;;;;;;;7.50;2.45;;;;;;;;;;5052594;28;20036;-67
2022/07/23 00:23:29;;;;;;;7.00;2.47;;;;;;;;;;5056104;28;20028;-68
2022/07/23 00:25:55;;;;;;;7.93;2.80;;;;;;;;;;5050449;28;20233;-68
2022/07/23 00:28:21;;;;;;;8.52;3.22;;;;;;;;;;5060593;28;20024;-68
2022/07/23 00:30:47;;;;;;;8.32;3.20;;;;;;;;;;5054914;28;20043;-66
2022/07/23 00:33:13;;;;;;;10.43;3.38;;;;;;;;;;5058479;28;20438;-66
2022/07/23 00:35:40;;;;;;;11.57;3.00;;;;;;;;;;5052056;28;20082;-66
2022/07/23 00:38:08;;;;;;;8.15;3.20;;;;;;;;;;5040000;28;20024;-66
2022/07/23 00:40:34;;;;;;;8.70;2.92;;;;;;;;;;5063153;28;20134;-66
2022/07/23 00:43:00;;;;;;;6.60;2.53;;;;;;;;;;5041319;28;20399;-66
2022/07/23 00:45:26;;;;;;;9.13;2.67;;;;;;;;;;5061368;28;20040;-66
2022/07/23 00:47:53;;;;;;;9.65;2.70;;;;;;;;;;5043569;28;20153;-66
2022/07/23 00:50:19;;;;;;;7.82;2.50;;;;;;;;;;5062956;28;20067;-67
2022/07/23 00:52:45;;;;;;;7.93;2.58;;;;;;;;;;5058733;28;20102;-67
2022/07/23 00:55:11;;;;;;;7.97;2.80;;;;;;;;;;5057354;28;20290;-66
2022/07/23 00:57:38;;;;;;;7.30;2.90;;;;;;;;;;5056643;28;20032;-66
2022/07/23 01:00:06;;;;;;;9.52;3.05;;;;;;;;;;5043371;28;20032;-67
2022/07/23 01:02:32;;;;;;;10.25;3.22;;;;;;;;;;5059812;28;20531;-67
2022/07/23 01:04:58;;;;;;;9.20;2.72;;;;;;;;;;5052832;28;20435;-67
2022/07/23 01:07:25;;;;;;;10.07;2.80;;;;;;;;;;5059363;28;20672;-67
2022/07/23 01:09:52;;;;;;;7.35;2.80;;;;;;;;;;5056917;28;20345;-67
2022/07/23 01:12:18;;;;;;;6.53;2.53;;;;;;;;;;5062642;28;20566;-67
2022/07/23 01:14:44;;;;;;;9.05;2.90;;;;;;;;;;5055534;28;20051;-67
2022/07/23 01:17:10;;;;;;;8.40;2.90;;;;;;;;;;5055065;28;20049;-66
2022/07/23 01:19:36;;;;;;;7.65;3.10;;;;;;;;;;5055360;28;20435;-67
2022/07/23 01:22:03;;;;;;;7.53;2.80;;;;;;;;;;5051001;28;20558;-67
2022/07/23 01:24:29;;;;;;;8.63;2.83;;;;;;;;;;5045077;28;20032;-67
2022/07/23 01:26:56;;;;;;;9.20;2.85;;;;;;;;;;5037352;28;20032;-66
2022/07/23 01:29:22;;;;;;;7.15;2.50;;;;;;;;;;5057614;28;20036;-67
2022/07/23 01:31:48;;;;;;;6.93;2.78;;;;;;;;;;5052489;28;20024;-67
2022/07/23 01:34:15;;;;;;;6.15;2.47;;;;;;;;;;5056087;28;20111;-66
2022/07/23 01:36:41;;;;;;;6.95;2.58;;;;;;;;;;5052462;28;20040;-67
2022/07/23 01:39:07;;;;;;;8.45;2.55;;;;;;;;;;5055215;28;20778;-67
2022/07/23 01:41:34;;;;;;;10.32;2.90;;;;;;;;;;5059080;28;20032;-67
2022/07/23 01:44:00;;;;;;;8.32;3.33;;;;;;;;;;5054347;28;20044;-67
2022/07/23 01:46:26;;;;;;;8.60;3.50;;;;;;;;;;5054646;28;20118;-67
2022/07/23 01:48:52;;;;;;;9.32;3.70;;;;;;;;;;5036961;28;20040;-66
2022/07/23 01:51:19;;;;;;;12.35;3.53;;;;;;;;;;5056310;28;20133;-67
2022/07/23 01:53:45;;;;;;;10.05;4.38;;;;;;;;;;5036788;28;20040;-67
2022/07/23 01:56:11;;;;;;;12.75;4.63;;;;;;;;;;5053436;28;20030;-67
2022/07/23 01:58:37;;;;;;;9.43;4.45;;;;;;;;;;5059104;28;20090;-67
2022/07/23 02:01:03;;;;;;;11.15;4.82;;;;;;;;;;5052684;28;20077;-67
2022/07/23 02:03:29;;;;;;;10.15;5.07;;;;;;;;;;5056700;28;20040;-66
2022/07/23 02:05:55;;;;;;;10.77;4.38;;;;;;;;;;5058394;28;20066;-67
2022/07/23 02:08:21;;;;;;;11.55;4.20;;;;;;;;;;5044084;28;20151;-67
2022/07/23 02:10:48;;;;;;;12.38;4.63;;;;;;;;;;5057598;28;20042;-68
2022/07/23 02:13:15;;;;;;;9.88;4.25;;;;;;;;;;5057299;28;20028;-67
2022/07/23 02:15:41;;;;;;;9.57;4.30;;;;;;;;;;5055111;28;20486;-67
2022/07/23 02:18:08;;;;;;;9.85;4.22;;;;;;;;;;5036632;28;21277;-66
2022/07/23 02:20:34;;;;;;;12.30;4.53;;;;;;;;;;5058960;28;20382;-67
2022/07/23 02:23:00;;;;;;;14.85;4.22;;;;;;;;;;5059703;28;20031;-67
2022/07/23 02:25:26;;;;;;;11.68;4.57;;;;;;;;;;5063768;28;20028;-66
2022/07/23 02:27:52;;;;;;;8.88;4.25;;;;;;;;;;5060573;28;20401;-66
2022/07/23 02:30:18;;;;;;;8.93;4.03;;;;;;;;;;5060279;28;20038;-67
2022/07/23 02:32:44;;;;;;;10.07;3.60;;;;;;;;;;5043532;28;20476;-67
2022/07/23 02:35:11;;;;;;;11.18;3.65;;;;;;;;;;5040798;28;20032;-67
2022/07/23 02:37:37;;;;;;;7.53;3.40;;;;;;;;;;5062794;28;20099;-67
2022/07/23 02:40:03;;;;;;;9.75;3.38;;;;;;;;;;5057839;28;20221;-67
2022/07/23 02:42:29;;;;;;;9.13;3.30;;;;;;;;;;5046389;28;20027;-67
2022/07/23 02:44:55;;;;;;;8.80;3.17;;;;;;;;;;5043739;28;20446;-67
2022/07/23 02:47:21;;;;;;;9.15;3.45;;;;;;;;;;5056918;28;20017;-67
2022/07/23 02:49:47;;;;;;;9.00;3.53;;;;;;;;;;5056272;28;20048;-66
2022/07/23 02:52:14;;;;;;;8.52;3.70;;;;;;;;;;5039935;28;20117;-66
2022/07/23 02:54:40;;;;;;;9.07;3.28;;;;;;;;;;5045376;28;20037;-66
2022/07/23 02:57:07;;;;;;;8.60;3.30;;;;;;;;;;5057731;28;21730;-67
2022/07/23 02:59:33;;;;;;;9.10;3.33;;;;;;;;;;5047043;28;20031;-66
2022/07/23 03:01:59;;;;;;;7.90;3.80;;;;;;;;;;5050934;28;20033;-66
2022/07/23 03:04:26;;;;;;;7.20;3.50;;;;;;;;;;5041311;28;20024;-68
2022/07/23 03:06:52;;;;;;;8.43;3.55;;;;;;;;;;5051451;28;20029;-66
2022/07/23 03:09:18;;;;;;;8.80;3.25;;;;;;;;;;5061425;28;20082;-66
2022/07/23 03:11:44;;;;;;;7.70;3.33;;;;;;;;;;5060867;28;20040;-66
2022/07/23 03:14:13;;;;;;;7.40;3.22;;;;;;;;;;5054133;28;20313;-66
2022/07/23 03:16:39;;;;;;;9.63;3.42;;;;;;;;;;5045014;28;20135;-67
2022/07/23 03:19:05;;;;;;;6.50;2.83;;;;;;;;;;5058829;28;20038;-66
2022/07/23 03:21:31;;;;;;;9.20;3.22;;;;;;;;;;5067730;28;20032;-68
2022/07/23 03:23:57;;;;;;;8.13;3.08;;;;;;;;;;5054998;28;20320;-68
2022/07/23 03:26:25;;;;;;;8.20;3.17;;;;;;;;;;5055668;28;20474;-68
2022/07/23 03:28:52;;;;;;;8.38;3.50;;;;;;;;;;5034512;28;20028;-66
2022/07/23 03:31:18;;;;;;;11.55;3.65;;;;;;;;;;5039285;28;20052;-66
2022/07/23 03:33:44;;;;;;;7.25;3.28;;;;;;;;;;5057123;28;20036;-66
2022/07/23 03:36:10;;;;;;;8.80;3.60;;;;;;;;;;5056449;28;20028;-66
2022/07/23 03:38:36;;;;;;;9.00;3.50;;;;;;;;;;5039869;28;20126;-66
2022/07/23 03:41:03;;;;;;;8.02;3.15;;;;;;;;;;5057483;28;20780;-66
2022/07/23 03:43:29;;;;;;;6.68;2.90;;;;;;;;;;5058870;28;20032;-66
2022/07/23 03:45:55;;;;;;;7.25;2.95;;;;;;;;;;5041073;28;20026;-67
2022/07/23 03:48:21;;;;;;;9.32;2.80;;;;;;;;;;5057592;28;20025;-66
2022/07/23 03:50:47;;;;;;;10.63;2.95;;;;;;;;;;5054827;28;20076;-67
2022/07/23 03:53:14;;;;;;;6.97;3.00;;;;;;;;;;5057783;28;20135;-66
2022/07/23 03:55:40;;;;;;;11.95;3.22;;;;;;;;;;5041445;28;20039;-68
2022/07/23 03:58:07;;;;;;;7.80;2.95;;;;;;;;;;5057418;28;20404;-68
2022/07/23 04:00:33;;;;;;;9.05;3.45;;;;;;;;;;5058571;28;20036;-67
2022/07/23 04:02:59;;;;;;;7.82;3.47;;;;;;;;;;5053048;28;20486;-68
2022/07/23 04:05:25;;;;;;;8.73;3.67;;;;;;;;;;5055932;28;20853;-67
2022/07/23 04:07:51;;;;;;;7.28;3.30;;;;;;;;;;5038347;28;20085;-67
2022/07/23 04:10:18;;;;;;;7.93;3.35;;;;;;;;;;5059929;28;20040;-68
2022/07/23 04:12:44;;;;;;;8.02;3.33;;;;;;;;;;5038265;28;20642;-67
2022/07/23 04:15:10;;;;;;;8.95;3.63;;;;;;;;;;5039568;28;20051;-67
2022/07/23 04:17:36;;;;;;;10.30;3.78;;;;;;;;;;5039022;28;20571;-67
2022/07/23 04:20:03;;;;;;;9.43;3.45;;;;;;;;;;5054987;28;20064;-67
2022/07/23 04:22:29;;;;;;;9.07;3.60;;;;;;;;;;5038545;28;20024;-67
2022/07/23 04:24:55;;;;;;;11.80;3.85;;;;;;;;;;5034429;28;20474;-68
2022/07/23 04:27:21;;;;;;;7.88;3.47;;;;;;;;;;5057438;28;20550;-68
2022/07/23 04:29:48;;;;;;;10.10;3.40;;;;;;;;;;5061461;28;20397;-67
2022/07/23 04:32:14;;;;;;;10.80;3.72;;;;;;;;;;5054276;28;20483;-68
2022/07/23 04:34:40;;;;;;;8.38;3.53;;;;;;;;;;5036590;28;20041;-68
2022/07/23 04:37:06;;;;;;;9.60;3.50;;;;;;;;;;5041586;28;20046;-67
2022/07/23 04:39:33;;;;;;;9.45;3.70;;;;;;;;;;5041984;28;20032;-67
2022/07/23 04:41:59;;;;;;;9.30;3.42;;;;;;;;;;5037997;28;20025;-68
2022/07/23 04:44:25;;;;;;;7.32;3.30;;;;;;;;;;5064974;28;20055;-67
2022/07/23 04:46:51;;;;;;;8.65;3.30;;;;;;;;;;5061071;28;20112;-67
2022/07/23 04:49:17;;;;;;;9.50;3.65;;;;;;;;;;5045265;28;20208;-67
2022/07/23 04:51:43;;;;;;;8.95;3.58;;;;;;;;;;5063415;28;20056;-67
2022/07/23 04:54:09;;;;;;;9.82;3.08;;;;;;;;;;5043541;28;20036;-67
2022/07/23 04:56:36;;;;;;;11.93;3.60;;;;;;;;;;5067780;28;20044;-67
2022/07/23 04:59:02;;;;;;;9.57;3.22;;;;;;;;;;5060449;28;20029;-67
2022/07/23 05:01:28;;;;;;;10.40;3.40;;;;;;;;;;5064699;28;20158;-67
2022/07/23 05:03:54;;;;;;;10.40;3.70;;;;;;;;;;5060550;28;20036;-67
2022/07/23 05:06:20;;;;;;;9.13;3.60;;;;;;;;;;5067043;28;20055;-68
2022/07/23 05:08:46;;;;;;;9.02;3.40;;;;;;;;;;5064537;28;20028;-67
2022/07/23 05:11:12;;;;;;;9.77;3.80;;;;;;;;;;5042996;28;20031;-67
2022/07/23 05:13:38;;;;;;;9.25;3.85;;;;;;;;;;5060522;28;20040;-67
2022/07/23 05:16:05;;;;;;;9.55;3.45;;;;;;;;;;5040538;28;20041;-67
2022/07/23 05:18:31;;;;;;;11.65;3.22;;;;;;;;;;5042470;28;20422;-67
2022/07/23 05:20:57;;;;;;;10.45;3.47;;;;;;;;;;5037344;28;20481;-67
2022/07/23 05:23:23;;;;;;;9.32;3.20;;;;;;;;;;5043731;28;20127;-68
2022/07/23 05:25:49;;;;;;;9.52;3.28;;;;;;;;;;5062499;28;20384;-67
2022/07/23 05:28:16;;;;;;;10.00;3.17;;;;;;;;;;5048387;28;20040;-68
2022/07/23 05:30:42;;;;;;;6.40;2.60;;;;;;;;;;5060079;28;20486;-68
2022/07/23 05:33:08;;;;;;;14.65;3.45;;;;;;;;;;5057325;28;20038;-68
2022/07/23 05:35:34;;;;;;;9.77;2.78;;;;;;;;;;5039847;28;20711;-67
2022/07/23 05:38:00;;;;;;;13.18;3.22;;;;;;;;;;5041438;28;20383;-67
2022/07/23 05:40:26;;;;;;;9.95;2.85;;;;;;;;;;5055997;28;20024;-67
2022/07/23 05:42:52;;;;;;;12.57;3.35;;;;;;;;;;5034365;28;20044;-67
2022/07/23 05:45:19;;;;;;;13.55;3.08;;;;;;;;;;5041363;28;20036;-67
2022/07/23 05:47:48;;;;;;;10.82;2.80;;;;;;;;;;5040257;28;20507;-69
2022/07/23 05:50:15;;;;;;;14.20;2.92;;;;;;;;;;5060624;28;20044;-68
2022/07/23 05:52:41;;;;;;;12.52;3.15;;;;;;;;;;5062232;28;20040;-66
2022/07/23 05:55:08;;;;;;;15.07;3.00;;;;;;;;;;5034781;28;20755;-66
2022/07/23 05:57:34;;;;;;;9.57;3.10;;;;;;;;;;5056469;28;20439;-67
2022/07/23 06:00:00;;;;;;;15.10;3.72;;;;;;;;;;5030069;28;20032;-69
2022/07/23 06:02:26;;;;;;;15.38;3.10;;;;;;;;;;5055776;28;20031;-67
2022/07/23 06:04:52;;;;;;;10.98;3.28;;;;;;;;;;5051691;28;20097;-67
2022/07/23 06:07:25;;;;;;;10.55;2.97;;;;;;;;;;5056664;28;20100;-67
2022/07/23 06:09:51;;;;;;;14.75;3.40;;;;;;;;;;5054209;28;20452;-67
2022/07/23 06:12:17;;;;;;;12.82;3.20;;;;;;;;;;5055358;28;20369;-67
2022/07/23 06:14:44;;;;;;;14.18;2.70;;;;;;;;;;5033853;28;20590;-67
2022/07/23 06:17:10;;;;;;;10.93;2.97;;;;;;;;;;5047906;28;20106;-67
2022/07/23 06:19:37;;;;;;;12.48;3.08;;;;;;;;;;5055015;28;20024;-67
2022/07/23 06:22:03;;;;;;;8.63;2.78;;;;;;;;;;5051508;28;20033;-67
2022/07/23 06:24:29;;;;;;;8.43;2.90;;;;;;;;;;5040068;28;20048;-67
2022/07/23 06:26:57;;;;;;;10.30;2.75;;;;;;;;;;5053760;28;20575;-68
2022/07/23 06:29:23;;;;;;;10.20;3.00;;;;;;;;;;5055388;28;20039;-68
2022/07/23 06:31:50;;;;;;;11.23;3.17;;;;;;;;;;5055826;28;20564;-67
2022/07/23 06:34:16;;;;;;;11.60;3.78;;;;;;;;;;5054613;28;20028;-68
2022/07/23 06:36:42;;;;;;;12.80;3.95;;;;;;;;;;5038574;28;20056;-67
2022/07/23 06:39:08;;;;;;;12.80;6.13;;;;;;;;;;5034386;28;20042;-67
2022/07/23 06:41:34;;;;;;;17.92;7.72;;;;;;;;;;5053498;28;20473;-69
2022/07/23 06:44:00;;;;;;;11.77;4.60;;;;;;;;;;5047091;28;20032;-67
2022/07/23 06:46:26;;;;;;;11.20;4.10;;;;;;;;;;5050607;28;20032;-69
2022/07/23 06:48:52;;;;;;;14.88;5.43;;;;;;;;;;5052763;28;20040;-67
2022/07/23 06:51:18;;;;;;;14.00;5.03;;;;;;;;;;5015014;28;20053;-67
2022/07/23 06:53:44;;;;;;;12.95;4.45;;;;;;;;;;5013111;28;20124;-67
2022/07/23 06:56:11;;;;;;;15.32;5.85;;;;;;;;;;5009272;28;20477;-68
2022/07/23 06:58:37;;;;;;;13.60;4.50;;;;;;;;;;5010477;28;20030;-67
2022/07/23 07:01:03;;;;;;;13.98;6.40;;;;;;;;;;5008706;28;20437;-68
2022/07/23 07:03:29;;;;;;;12.25;4.70;;;;;;;;;;5014015;28;20081;-68
2022/07/23 07:05:57;;;;;;;10.73;4.25;;;;;;;;;;5010782;28;20029;-66
2022/07/23 07:08:23;;;;;;;11.65;4.15;;;;;;;;;;5014273;28;20029;-68
2022/07/23 07:10:49;;;;;;;10.77;3.53;;;;;;;;;;5011176;28;20116;-67
2022/07/23 07:13:15;;;;;;;12.57;3.97;;;;;;;;;;5012900;28;20067;-67
2022/07/23 07:15:42;;;;;;;10.93;3.65;;;;;;;;;;5015716;28;20033;-67
2022/07/23 07:18:08;;;;;;;11.35;3.53;;;;;;;;;;5009350;28;20223;-67
2022/07/23 07:20:34;;;;;;;9.15;3.78;;;;;;;;;;5014134;28;20044;-67
2022/07/23 07:23:00;;;;;;;11.63;4.88;;;;;;;;;;5010161;28;20111;-67
2022/07/23 07:25:26;;;;;;;13.48;4.90;;;;;;;;;;5013389;28;20507;-68
2022/07/23 07:27:52;;;;;;;9.70;4.50;;;;;;;;;;5007456;28;20032;-68
2022/07/23 07:30:18;;;;;;;8.30;3.63;;;;;;;;;;5009580;28;20528;-68
2022/07/23 07:32:45;;;;;;;10.07;3.97;;;;;;;;;;5013999;28;20030;-68
2022/07/23 07:35:11;;;;;;;9.93;3.83;;;;;;;;;;5007184;28;20110;-67
2022/07/23 07:37:37;;;;;;;10.55;3.55;;;;;;;;;;5012933;28;20033;-68
2022/07/23 07:40:03;;;;;;;8.35;3.28;;;;;;;;;;5006203;28;20063;-67
2022/07/23 07:42:30;;;;;;;8.68;3.70;;;;;;;;;;5012330;28;20445;-66
2022/07/23 07:44:56;;;;;;;8.35;3.65;;;;;;;;;;5008291;28;20053;-68
2022/07/23 07:47:22;;;;;;;10.88;3.60;;;;;;;;;;5008423;28;20481;-68
2022/07/23 07:49:48;;;;;;;10.07;3.08;;;;;;;;;;5014882;28;20091;-68
2022/07/23 07:52:14;;;;;;;11.20;4.35;;;;;;;;;;5048674;28;20336;-68
2022/07/23 07:54:40;;;;;;;12.23;3.80;;;;;;;;;;5030771;28;20303;-68
2022/07/23 07:57:06;;;;;;;9.73;3.70;;;;;;;;;;5047468;28;20016;-67
2022/07/23 07:59:33;;;;;;;10.02;3.38;;;;;;;;;;5052587;28;20164;-67
2022/07/23 08:01:59;;;;;;;8.23;3.80;;;;;;;;;;5051708;28;20039;-67
2022/07/23 08:04:25;;;;;;;11.10;3.67;;;;;;;;;;5034180;28;20475;-66
2022/07/23 08:06:51;;;;;;;9.88;3.42;;;;;;;;;;5049333;28;20037;-68
2022/07/23 08:09:17;;;;;;;11.57;3.40;;;;;;;;;;5051887;28;20096;-67
2022/07/23 08:11:43;;;;;;;8.23;3.38;;;;;;;;;;5048347;28;20044;-67
2022/07/23 08:14:10;;;;;;;8.45;3.22;;;;;;;;;;5029729;28;20126;-66
2022/07/23 08:16:37;;;;;;;9.10;3.60;;;;;;;;;;5048604;28;20025;-69
2022/07/23 08:19:03;;;;;;;9.93;3.28;;;;;;;;;;5046689;28;20121;-67
2022/07/23 08:21:29;;;;;;;7.72;3.25;;;;;;;;;;5032415;28;20262;-68
2022/07/23 08:23:55;;;;;;;8.85;3.28;;;;;;;;;;5027276;28;20044;-68
2022/07/23 08:26:21;;;;;;;7.63;3.28;;;;;;;;;;5049089;28;20054;-67
2022/07/23 08:28:48;;;;;;;8.10;3.00;;;;;;;;;;5047422;28;20044;-66
2022/07/23 08:31:16;;;;;;;8.43;2.70;;;;;;;;;;5049268;28;20121;-67
2022/07/23 08:33:42;;;;;;;7.57;2.88;;;;;;;;;;5029815;28;20032;-67
2022/07/23 08:36:08;;;;;;;7.10;3.03;;;;;;;;;;5027897;28;20606;-67
2022/07/23 08:38:35;;;;;;;8.13;2.92;;;;;;;;;;5028632;28;20033;-68
2022/07/23 08:41:02;;;;;;;7.05;2.40;;;;;;;;;;5046765;28;20020;-67
2022/07/23 08:43:32;;;;;;;7.40;2.60;;;;;;;;;;5032477;28;20159;-70
2022/07/23 08:46:01;;;;;;;8.40;2.70;;;;;;;;;;5044271;28;20134;-66
2022/07/23 08:48:28;;;;;;;7.38;2.83;;;;;;;;;;5035142;28;20071;-67
2022/07/23 08:50:56;;;;;;;7.13;2.75;;;;;;;;;;5050471;28;20056;-66
2022/07/23 08:53:23;;;;;;;7.13;2.72;;;;;;;;;;5028854;28;20035;-67
2022/07/23 08:55:53;;;;;;;10.32;3.10;;;;;;;;;;5033122;28;20510;-67
2022/07/23 08:58:20;;;;;;;9.45;3.05;;;;;;;;;;5052872;28;20055;-68
2022/07/23 09:00:46;;;;;;;8.55;3.05;;;;;;;;;;5031636;28;20484;-67
2022/07/23 09:03:26;;;;;;;6.22;2.55;;;;;;;;;;5030224;28;20051;-65
2022/07/23 09:05:53;;;;;;;8.35;2.65;;;;;;;;;;5028084;28;20060;-67
2022/07/23 09:08:23;;;;;;;7.97;2.60;;;;;;;;;;5031586;28;20060;-66
2022/07/23 09:10:56;;;;;;;7.85;2.58;;;;;;;;;;5027502;28;20468;-67
2022/07/23 09:13:45;;;;;;;6.43;2.50;;;;;;;;;;5033161;28;20152;-67
2022/07/23 09:16:15;;;;;;;5.40;2.38;;;;;;;;;;5037339;28;20489;-67
2022/07/23 09:18:43;;;;;;;9.48;2.90;;;;;;;;;;5048348;28;20032;-66
2022/07/23 09:21:13;;;;;;;7.85;2.55;;;;;;;;;;5047296;28;20116;-66
2022/07/23 09:23:44;;;;;;;7.15;2.33;;;;;;;;;;5053042;28;20516;-67
2022/07/23 09:26:20;;;;;;;5.57;2.15;;;;;;;;;;5045062;28;20765;-67
2022/07/23 09:28:54;;;;;;;7.50;2.50;;;;;;;;;;5049913;28;20457;-65
2022/07/23 09:31:21;;;;;;;6.78;2.30;;;;;;;;;;5053592;28;20210;-65
2022/07/23 09:33:47;;;;;;;9.45;2.92;;;;;;;;;;5029902;28;20400;-66
2022/07/23 09:36:13;;;;;;;6.53;2.38;;;;;;;;;;5033447;28;20541;-66
2022/07/23 09:38:59;;;;;;;7.13;2.47;;;;;;;;;;5032748;28;20716;-66
2022/07/23 09:41:34;;;;;;;7.25;2.60;;;;;;;;;;5052530;28;20866;-67
2022/07/23 09:44:06;;;;;;;6.47;2.63;;;;;;;;;;5043083;28;20105;-66
2022/07/23 09:46:32;;;;;;;6.18;2.47;;;;;;;;;;5031156;28;20075;-67
2022/07/23 09:48:59;;;;;;;8.98;2.60;;;;;;;;;;5048714;28;20032;-67
2022/07/23 09:51:32;;;;;;;9.07;2.67;;;;;;;;;;5051977;28;20453;-66
2022/07/23 09:53:58;;;;;;;6.45;2.53;;;;;;;;;;5049279;28;20033;-66
2022/07/23 09:56:24;;;;;;;7.97;2.53;;;;;;;;;;5057948;28;20202;-67
2022/07/23 10:01:38;;;;;;;9.95;2.65;;;;;;;;;;5054666;28;20079;-66
2022/07/23 10:04:05;;;;;;;8.55;2.53;;;;;;;;;;5050640;28;20032;-67
2022/07/23 10:06:32;;;;;;;5.75;2.25;;;;;;;;;;5054075;28;20028;-68
2022/07/23 10:08:59;;;;;;;7.47;2.80;;;;;;;;;;5051958;28;20039;-68
2022/07/23 10:11:25;;;;;;;7.97;2.25;;;;;;;;;;5055699;28;20028;-67
2022/07/23 10:13:54;;;;;;;6.28;2.53;;;;;;;;;;5035064;28;20066;-68
2022/07/23 10:16:20;;;;;;;7.20;2.65;;;;;;;;;;5054570;28;20046;-65
2022/07/23 10:18:47;;;;;;;7.13;2.60;;;;;;;;;;5035512;28;20183;-66
2022/07/23 10:21:16;;;;;;;5.50;2.20;;;;;;;;;;5052817;28;20089;-66
2022/07/23 10:23:49;;;;;;;8.40;3.00;;;;;;;;;;5051933;28;20325;-65
2022/07/23 10:26:23;;;;;;;8.43;2.50;;;;;;;;;;5051508;28;20551;-65
2022/07/23 10:29:07;;;;;;;9.10;3.03;;;;;;;;;;5051767;28;20085;-65
2022/07/23 10:31:36;;;;;;;7.68;2.40;;;;;;;;;;5052965;28;20515;-66
2022/07/23 10:34:15;;;;;;;7.53;2.50;;;;;;;;;;5033892;28;20089;-66
2022/07/23 10:36:53;;;;;;;7.70;2.53;;;;;;;;;;5054351;28;20505;-66
2022/07/23 10:39:25;;;;;;;7.78;3.05;;;;;;;;;;5035903;28;20021;-67
2022/07/23 10:41:52;;;;;;;5.18;2.10;;;;;;;;;;5053014;28;20064;-67
2022/07/23 10:44:25;;;;;;;5.53;2.30;;;;;;;;;;5033956;28;20020;-68
2022/07/23 10:49:46;;;;;;;8.13;2.70;;;;;;;;;;5056555;28;20262;-67
2022/07/23 10:52:15;;;;;;;5.70;2.28;;;;;;;;;;5053231;28;20029;-66
2022/07/23 10:54:42;;;;;;;6.43;2.25;;;;;;;;;;5055785;28;20070;-67
2022/07/23 10:57:09;;;;;;;9.02;2.60;;;;;;;;;;5051197;28;20708;-68
2022/07/23 10:59:53;;;;;;;6.78;2.00;;;;;;;;;;5054303;28;20515;-68
2022/07/23 11:02:23;;;;;;;6.05;2.13;;;;;;;;;;5038261;28;20495;-67
2022/07/23 11:04:51;;;;;;;5.93;1.92;;;;;;;;;;5057206;28;20113;-67
2022/07/23 11:07:17;;;;;;;7.82;2.25;;;;;;;;;;5053676;28;20036;-68
2022/07/23 11:09:45;;;;;;;7.88;2.30;;;;;;;;;;5037942;28;20475;-68
2022/07/23 11:12:15;;;;;;;9.30;2.13;;;;;;;;;;5030634;28;20036;-68
2022/07/23 11:15:00;;;;;;;6.05;2.38;;;;;;;;;;5054204;28;20487;-65
2022/07/23 11:17:26;;;;;;;7.82;2.40;;;;;;;;;;5056573;28;20039;-65
2022/07/23 11:20:25;;;;;;;6.50;2.40;;;;;;;;;;5053636;28;20055;-67
2022/07/23 11:22:52;;;;;;;9.50;3.13;;;;;;;;;;4983299;28;20116;-66
2022/07/23 11:25:21;;;;;;;8.30;2.40;;;;;;;;;;4995385;28;20319;-66
2022/07/23 11:27:48;;;;;;;8.23;2.60;;;;;;;;;;4988912;28;20037;-67
2022/07/23 11:30:27;;;;;;;9.02;2.72;;;;;;;;;;4982550;28;20045;-66
2022/07/23 11:33:13;;;;;;;6.35;2.40;;;;;;;;;;4986521;28;20067;-66
2022/07/23 11:35:40;;;;;;;6.28;2.20;;;;;;;;;;4973169;28;20500;-66
2022/07/23 11:38:08;;;;;;;7.90;2.47;;;;;;;;;;4988802;28;20030;-66
2022/07/23 11:40:35;;;;;;;7.90;2.40;;;;;;;;;;4990288;28;20115;-66
2022/07/23 11:43:05;;;;;;;5.63;2.17;;;;;;;;;;4987333;28;20045;-67
2022/07/23 11:45:33;;;;;;;9.13;2.47;;;;;;;;;;4991246;28;20474;-66
2022/07/23 11:47:59;;;;;;;7.90;2.13;;;;;;;;;;4985894;28;20349;-66
2022/07/23 11:50:26;;;;;;;5.93;2.17;;;;;;;;;;4988789;28;20490;-66
2022/07/23 11:52:53;;;;;;;6.57;2.03;;;;;;;;;;4984677;28;20076;-66
2022/07/23 11:55:19;;;;;;;6.32;2.28;;;;;;;;;;4989223;28;20088;-67
2022/07/23 11:57:45;;;;;;;8.10;2.28;;;;;;;;;;5000578;28;20055;-66
2022/07/23 12:00:12;;;;;;;6.22;2.17;;;;;;;;;;5032862;28;20402;-65
2022/07/23 12:02:39;;;;;;;6.40;2.30;;;;;;;;;;5054976;28;20480;-65
2022/07/23 12:05:06;;;;;;;7.40;2.28;;;;;;;;;;5048109;28;20044;-66
2022/07/23 12:07:40;;;;;;;6.18;2.25;;;;;;;;;;5055485;28;20040;-66
2022/07/23 12:10:06;;;;;;;8.65;2.22;;;;;;;;;;5040382;28;20628;-66
2022/07/23 12:12:36;;;;;;;7.93;2.15;;;;;;;;;;5035638;28;20498;-66
2022/07/23 12:15:03;;;;;;;6.60;2.20;;;;;;;;;;5033168;28;20080;-68
2022/07/23 12:17:31;;;;;;;9.20;2.20;;;;;;;;;;5054980;28;20252;-66
2022/07/23 12:19:58;;;;;;;6.25;2.40;;;;;;;;;;5033282;28;20480;-66
2022/07/23 12:22:25;;;;;;;6.15;2.28;;;;;;;;;;5054996;28;20032;-67
2022/07/23 12:24:55;;;;;;;9.05;2.42;;;;;;;;;;5051192;28;20031;-67
2022/07/23 12:27:21;;;;;;;7.13;2.08;;;;;;;;;;5053030;28;20016;-65
2022/07/23 12:29:48;;;;;;;7.53;2.30;;;;;;;;;;5034012;28;20506;-65
2022/07/23 12:32:21;;;;;;;6.03;2.20;;;;;;;;;;5054000;28;20660;-66
2022/07/23 12:35:07;;;;;;;7.05;2.40;;;;;;;;;;5056582;28;20529;-66
2022/07/23 12:37:34;;;;;;;5.47;2.28;;;;;;;;;;5054174;28;20028;-65
2022/07/23 12:40:19;;;;;;;7.45;2.30;;;;;;;;;;5047836;28;20028;-66
2022/07/23 12:42:46;;;;;;;7.97;2.20;;;;;;;;;;5036581;28;20021;-66
2022/07/23 12:45:13;;;;;;;6.43;1.98;;;;;;;;;;5051017;28;20032;-65
2022/07/23 12:47:58;;;;;;;7.55;2.17;;;;;;;;;;5036993;28;20029;-65
2022/07/23 12:50:36;;;;;;;6.63;2.28;;;;;;;;;;5053285;28;20515;-66
2022/07/23 12:53:06;;;;;;;5.30;2.05;;;;;;;;;;5050920;28;20078;-66
2022/07/23 12:55:32;;;;;;;8.07;2.40;;;;;;;;;;5057188;28;20024;-66
2022/07/23 12:58:05;;;;;;;8.07;2.40;;;;;;;;;;5033018;28;20035;-66
2022/07/23 13:00:32;;;;;;;7.45;2.20;;;;;;;;;;5054187;28;20486;-66
2022/07/23 13:02:58;;;;;;;7.25;2.30;;;;;;;;;;5032471;28;20032;-65
2022/07/23 13:05:24;;;;;;;6.88;2.00;;;;;;;;;;5049776;28;20036;-66
2022/07/23 13:07:50;;;;;;;6.45;2.00;;;;;;;;;;5031178;28;20024;-66
2022/07/23 13:10:16;;;;;;;7.32;2.03;;;;;;;;;;5055246;28;20488;-65
2022/07/23 13:12:42;;;;;;;6.22;2.10;;;;;;;;;;5048861;28;20033;-65
2022/07/23 13:15:09;;;;;;;8.60;2.47;;;;;;;;;;5044498;28;20963;-66
2022/07/23 13:17:35;;;;;;;8.18;2.20;;;;;;;;;;5033964;28;20039;-66
2022/07/23 13:20:02;;;;;;;6.43;2.15;;;;;;;;;;5044453;28;20571;-66
2022/07/23 13:22:28;;;;;;;10.07;2.22;;;;;;;;;;5053187;28;20511;-66
2022/07/23 13:24:54;;;;;;;5.13;1.95;;;;;;;;;;5050741;28;20404;-66
2022/07/23 13:27:20;;;;;;;6.75;2.20;;;;;;;;;;5037198;28;20028;-66
2022/07/23 13:29:46;;;;;;;6.95;2.03;;;;;;;;;;5036441;28;20194;-65
2022/07/23 13:32:13;;;;;;;6.25;1.98;;;;;;;;;;5048344;28;20036;-65
2022/07/23 13:34:39;;;;;;;6.18;2.10;;;;;;;;;;5033833;28;20054;-66
2022/07/23 13:37:05;;;;;;;6.20;1.73;;;;;;;;;;5051990;28;20525;-65
2022/07/23 13:39:31;;;;;;;7.22;2.10;;;;;;;;;;5053178;28;20481;-68
2022/07/23 13:41:57;;;;;;;7.05;2.25;;;;;;;;;;5032333;28;20161;-66
2022/07/23 13:44:23;;;;;;;6.68;1.85;;;;;;;;;;5035139;28;20401;-66
2022/07/23 13:46:50;;;;;;;6.38;1.90;;;;;;;;;;5030280;28;20789;-65
2022/07/23 13:49:16;;;;;;;6.72;1.60;;;;;;;;;;5047521;28;20487;-66
2022/07/23 13:51:42;;;;;;;5.18;1.67;;;;;;;;;;5046883;28;20059;-66
2022/07/23 13:54:08;;;;;;;6.50;1.73;;;;;;;;;;5047154;28;20058;-65
2022/07/23 13:56:35;;;;;;;8.95;1.85;;;;;;;;;;5049929;28;20036;-65
2022/07/23 13:59:02;;;;;;;6.60;2.40;;;;;;;;;;5048169;28;20574;-66
2022/07/23 14:01:28;;;;;;;6.60;1.98;;;;;;;;;;5032734;28;20054;-66
2022/07/23 14:03:54;;;;;;;5.10;1.60;;;;;;;;;;5045435;28;20558;-66
2022/07/23 14:06:20;;;;;;;6.15;1.77;;;;;;;;;;5049292;28;20024;-67
2022/07/23 14:08:46;;;;;;;6.47;2.10;;;;;;;;;;5034198;28;20032;-65
2022/07/23 14:11:13;;;;;;;5.75;1.83;;;;;;;;;;5044552;28;20028;-65
2022/07/23 14:13:39;;;;;;;5.60;1.88;;;;;;;;;;5047067;28;20778;-65
2022/07/23 14:16:05;;;;;;;5.90;1.88;;;;;;;;;;5025395;28;20043;-65
2022/07/23 14:18:31;;;;;;;6.95;1.73;;;;;;;;;;5047945;28;20028;-66
2022/07/23 14:20:57;;;;;;;7.32;1.90;;;;;;;;;;5043934;28;20145;-66
2022/07/23 14:23:24;;;;;;;6.05;1.92;;;;;;;;;;5048032;28;20033;-65
2022/07/23 14:25:50;;;;;;;5.32;1.80;;;;;;;;;;5044977;28;20078;-66
2022/07/23 14:28:16;;;;;;;5.55;1.92;;;;;;;;;;5048288;28;20035;-66
2022/07/23 14:30:43;;;;;;;5.93;2.05;;;;;;;;;;5028040;28;20109;-66
2022/07/23 14:33:09;;;;;;;7.70;1.90;;;;;;;;;;5042628;28;20036;-66
2022/07/23 14:35:35;;;;;;;6.82;1.95;;;;;;;;;;5031826;28;20530;-65
2022/07/23 14:38:01;;;;;;;6.72;1.85;;;;;;;;;;5044960;28;20134;-66
2022/07/23 14:40:28;;;;;;;7.40;1.80;;;;;;;;;;5050119;28;20120;-66
2022/07/23 14:42:54;;;;;;;6.32;1.98;;;;;;;;;;5041666;28;20499;-65
2022/07/23 14:45:20;;;;;;;5.95;1.80;;;;;;;;;;5043744;28;20056;-65
2022/07/23 14:47:47;;;;;;;6.93;1.80;;;;;;;;;;5047356;28;20569;-65